sensor_id;sensor_type;location;lat;lon;timestamp;temperature;humidity
7894;DHT22;51343;51.396;6.656;2023-09-07T00:00:01;18.00;99.90
7894;DHT22;51343;51.396;6.656;2023-09-07T00:02:30;18.00;99.90
7894;DHT22;51343;51.396;6.656;2023-09-07T00:04:57;18.00;86.10
7894;DHT22;51343;51.396;6.656;2023-09-07T00:07:24;17.90;99.90
7894;DHT22;51343;51.396;6.656;2023-09-07T00:09:50;17.90;1.00
7894;DHT22;51343;51.396;6.656;2023-09-07T00:12:20;17.80;1.00
7894;DHT22;51343;51.396;6.656;2023-09-07T00:14:48;17.80;99.90
7894;DHT22;51343;51.396;6.656;2023-09-07T00:17:14;17.80;1.00
7894;DHT22;51343;51.396;6.656;2023-09-07T00:19:41;17.80;99.90
7894;DHT22;51343;51.396;6.656;2023-09-07T00:22:08;17.80;1.00
7894;DHT22;51343;51.396;6.656;2023-09-07T00:24:35;17.70;1.00
7894;DHT22;51343;51.396;6.656;2023-09-07T00:27:01;17.70;99.90
7894;DHT22;51343;51.396;6.656;2023-09-07T00:29:30;17.70;99.90
7894;DHT22;51343;51.396;6.656;2023-09-07T00:31:58;17.70;99.90
7894;DHT22;51343;51.396;6.656;2023-09-07T00:34:25;17.70;1.00
7894;DHT22;51343;51.396;6.656;2023-09-07T00:36:52;17.70;1.00
7894;DHT22;51343;51.396;6.656;2023-09-07T00:39:18;17.70;1.00
7894;DHT22;51343;51.396;6.656;2023-09-07T00:41:45;17.60;99.90
7894;DHT22;51343;51.396;6.656;2023-09-07T00:44:11;17.60;99.90
7894;DHT22;51343;51.396;6.656;2023-09-07T00:46:38;17.60;99.90
7894;DHT22;51343;51.396;6.656;2023-09-07T00:49:06;17.50;99.90
7894;DHT22;51343;51.396;6.656;2023-09-07T00:51:33;17.50;1.00
7894;DHT22;51343;51.396;6.656;2023-09-07T00:54:00;17.50;99.90
7894;DHT22;51343;51.396;6.656;2023-09-07T00:56:26;17.50;99.90
7894;DHT22;51343;51.396;6.656;2023-09-07T00:58:53;17.40;1.00
7894;DHT22;51343;51.396;6.656;2023-09-07T01:01:21;17.40;1.00
7894;DHT22;51343;51.396;6.656;2023-09-07T01:03:49;17.40;99.90
7894;DHT22;51343;51.396;6.656;2023-09-07T01:06:20;17.30;1.00
7894;DHT22;51343;51.396;6.656;2023-09-07T01:08:52;17.30;1.00
7894;DHT22;51343;51.396;6.656;2023-09-07T01:11:21;17.30;1.00
7894;DHT22;51343;51.396;6.656;2023-09-07T01:13:49;17.30;99.90
7894;DHT22;51343;51.396;6.656;2023-09-07T01:16:17;17.30;23.70
7894;DHT22;51343;51.396;6.656;2023-09-07T01:18:44;17.20;99.90
7894;DHT22;51343;51.396;6.656;2023-09-07T01:21:11;17.30;1.00
7894;DHT22;51343;51.396;6.656;2023-09-07T01:23:40;17.20;1.00
7894;DHT22;51343;51.396;6.656;2023-09-07T01:26:07;17.20;1.00
7894;DHT22;51343;51.396;6.656;2023-09-07T01:28:34;17.20;1.00
7894;DHT22;51343;51.396;6.656;2023-09-07T01:31:02;17.20;1.00
7894;DHT22;51343;51.396;6.656;2023-09-07T01:33:29;17.20;99.90
7894;DHT22;51343;51.396;6.656;2023-09-07T01:35:55;17.20;99.90
7894;DHT22;51343;51.396;6.656;2023-09-07T01:38:22;17.20;1.00
7894;DHT22;51343;51.396;6.656;2023-09-07T01:40:50;17.10;99.90
7894;DHT22;51343;51.396;6.656;2023-09-07T01:43:17;17.10;51.00
7894;DHT22;51343;51.396;6.656;2023-09-07T01:45:43;17.10;99.90
7894;DHT22;51343;51.396;6.656;2023-09-07T01:48:11;17.00;1.00
7894;DHT22;51343;51.396;6.656;2023-09-07T01:50:38;17.00;1.00
7894;DHT22;51343;51.396;6.656;2023-09-07T01:53:04;17.00;1.00
7894;DHT22;51343;51.396;6.656;2023-09-07T01:55:31;16.90;1.00
7894;DHT22;51343;51.396;6.656;2023-09-07T01:57:59;16.90;1.00
7894;DHT22;51343;51.396;6.656;2023-09-07T02:00:26;16.90;1.00
7894;DHT22;51343;51.396;6.656;2023-09-07T02:02:52;16.90;1.00
7894;DHT22;51343;51.396;6.656;2023-09-07T02:05:19;16.80;28.20
7894;DHT22;51343;51.396;6.656;2023-09-07T02:07:46;16.80;1.00
7894;DHT22;51343;51.396;6.656;2023-09-07T02:10:15;16.80;99.90
7894;DHT22;51343;51.396;6.656;2023-09-07T02:12:41;16.70;1.00
7894;DHT22;51343;51.396;6.656;2023-09-07T02:15:09;16.70;1.00
7894;DHT22;51343;51.396;6.656;2023-09-07T02:17:36;16.70;99.90
7894;DHT22;51343;51.396;6.656;2023-09-07T02:20:03;16.70;99.90
7894;DHT22;51343;51.396;6.656;2023-09-07T02:22:35;16.60;1.00
7894;DHT22;51343;51.396;6.656;2023-09-07T02:25:02;16.60;99.90
7894;DHT22;51343;51.396;6.656;2023-09-07T02:27:30;16.60;99.90
7894;DHT22;51343;51.396;6.656;2023-09-07T02:29:57;16.60;1.00
7894;DHT22;51343;51.396;6.656;2023-09-07T02:32:25;16.60;99.90
7894;DHT22;51343;51.396;6.656;2023-09-07T02:34:52;16.60;1.00
7894;DHT22;51343;51.396;6.656;2023-09-07T02:37:18;16.60;93.90
7894;DHT22;51343;51.396;6.656;2023-09-07T02:39:45;16.50;91.10
7894;DHT22;51343;51.396;6.656;2023-09-07T02:42:11;16.50;99.90
7894;DHT22;51343;51.396;6.656;2023-09-07T02:44:38;16.40;1.00
7894;DHT22;51343;51.396;6.656;2023-09-07T02:47:04;16.40;1.00
7894;DHT22;51343;51.396;6.656;2023-09-07T02:49:32;16.40;1.00
7894;DHT22;51343;51.396;6.656;2023-09-07T02:51:59;16.40;1.00
7894;DHT22;51343;51.396;6.656;2023-09-07T02:54:26;16.40;99.90
7894;DHT22;51343;51.396;6.656;2023-09-07T02:56:52;16.30;1.00
7894;DHT22;51343;51.396;6.656;2023-09-07T02:59:19;16.30;1.00
7894;DHT22;51343;51.396;6.656;2023-09-07T03:01:46;16.40;1.00
7894;DHT22;51343;51.396;6.656;2023-09-07T03:04:12;16.30;1.00
7894;DHT22;51343;51.396;6.656;2023-09-07T03:06:40;16.30;1.70
7894;DHT22;51343;51.396;6.656;2023-09-07T03:09:07;16.20;99.90
7894;DHT22;51343;51.396;6.656;2023-09-07T03:11:34;16.20;1.00
7894;DHT22;51343;51.396;6.656;2023-09-07T03:14:01;16.20;1.00
7894;DHT22;51343;51.396;6.656;2023-09-07T03:16:27;16.20;1.00
7894;DHT22;51343;51.396;6.656;2023-09-07T03:18:55;16.20;99.90
7894;DHT22;51343;51.396;6.656;2023-09-07T03:21:22;16.10;1.00
7894;DHT22;51343;51.396;6.656;2023-09-07T03:23:53;16.10;99.90
7894;DHT22;51343;51.396;6.656;2023-09-07T03:26:19;16.10;99.90
7894;DHT22;51343;51.396;6.656;2023-09-07T03:28:46;16.10;1.00
7894;DHT22;51343;51.396;6.656;2023-09-07T03:31:12;16.00;99.90
7894;DHT22;51343;51.396;6.656;2023-09-07T03:33:39;16.10;1.00
7894;DHT22;51343;51.396;6.656;2023-09-07T03:36:06;16.00;1.00
7894;DHT22;51343;51.396;6.656;2023-09-07T03:38:34;16.10;99.90
7894;DHT22;51343;51.396;6.656;2023-09-07T03:41:02;16.00;99.90
7894;DHT22;51343;51.396;6.656;2023-09-07T03:43:29;15.90;1.00
7894;DHT22;51343;51.396;6.656;2023-09-07T03:45:56;15.90;99.90
7894;DHT22;51343;51.396;6.656;2023-09-07T03:48:23;16.00;23.70
7894;DHT22;51343;51.396;6.656;2023-09-07T03:50:50;15.90;99.90
7894;DHT22;51343;51.396;6.656;2023-09-07T03:53:16;15.90;1.00
7894;DHT22;51343;51.396;6.656;2023-09-07T03:55:44;15.80;99.90
7894;DHT22;51343;51.396;6.656;2023-09-07T03:58:12;15.80;99.90
7894;DHT22;51343;51.396;6.656;2023-09-07T04:00:39;15.80;1.00
7894;DHT22;51343;51.396;6.656;2023-09-07T04:03:06;15.80;99.90
7894;DHT22;51343;51.396;6.656;2023-09-07T04:05:33;15.80;1.00
7894;DHT22;51343;51.396;6.656;2023-09-07T04:07:59;15.70;1.00
7894;DHT22;51343;51.396;6.656;2023-09-07T04:10:28;15.70;99.90
7894;DHT22;51343;51.396;6.656;2023-09-07T04:12:54;15.70;1.00
7894;DHT22;51343;51.396;6.656;2023-09-07T04:15:22;15.70;99.90
7894;DHT22;51343;51.396;6.656;2023-09-07T04:17:50;15.70;1.00
7894;DHT22;51343;51.396;6.656;2023-09-07T04:20:17;15.60;1.00
7894;DHT22;51343;51.396;6.656;2023-09-07T04:22:44;15.60;99.90
7894;DHT22;51343;51.396;6.656;2023-09-07T04:25:10;15.60;99.90
7894;DHT22;51343;51.396;6.656;2023-09-07T04:27:37;15.60;99.90
7894;DHT22;51343;51.396;6.656;2023-09-07T04:30:04;15.60;99.90
7894;DHT22;51343;51.396;6.656;2023-09-07T04:32:32;15.50;99.90
7894;DHT22;51343;51.396;6.656;2023-09-07T04:34:59;15.50;99.90
7894;DHT22;51343;51.396;6.656;2023-09-07T04:37:27;15.50;99.90
7894;DHT22;51343;51.396;6.656;2023-09-07T04:39:53;15.50;1.00
7894;DHT22;51343;51.396;6.656;2023-09-07T04:42:20;15.40;99.90
7894;DHT22;51343;51.396;6.656;2023-09-07T04:44:47;15.40;1.00
7894;DHT22;51343;51.396;6.656;2023-09-07T04:47:14;15.40;1.00
7894;DHT22;51343;51.396;6.656;2023-09-07T04:49:47;15.40;1.00
7894;DHT22;51343;51.396;6.656;2023-09-07T05:35:28;15.20;99.90
7894;DHT22;51343;51.396;6.656;2023-09-07T05:37:57;15.20;1.00
7894;DHT22;51343;51.396;6.656;2023-09-07T05:40:24;15.20;1.00
7894;DHT22;51343;51.396;6.656;2023-09-07T05:42:50;15.30;1.00
7894;DHT22;51343;51.396;6.656;2023-09-07T05:45:17;15.40;1.00
7894;DHT22;51343;51.396;6.656;2023-09-07T05:47:44;15.40;1.00
7894;DHT22;51343;51.396;6.656;2023-09-07T05:50:10;15.40;1.00
7894;DHT22;51343;51.396;6.656;2023-09-07T05:52:38;15.50;1.00
7894;DHT22;51343;51.396;6.656;2023-09-07T05:55:05;15.60;1.00
7894;DHT22;51343;51.396;6.656;2023-09-07T05:57:32;15.60;1.00
7894;DHT22;51343;51.396;6.656;2023-09-07T05:59:59;15.70;1.00
7894;DHT22;51343;51.396;6.656;2023-09-07T06:02:25;15.80;1.00
7894;DHT22;51343;51.396;6.656;2023-09-07T06:04:52;15.80;1.00
7894;DHT22;51343;51.396;6.656;2023-09-07T06:07:19;15.90;1.00
7894;DHT22;51343;51.396;6.656;2023-09-07T06:09:46;16.00;1.00
7894;DHT22;51343;51.396;6.656;2023-09-07T06:12:13;16.10;1.00
7894;DHT22;51343;51.396;6.656;2023-09-07T06:14:40;16.30;1.00
7894;DHT22;51343;51.396;6.656;2023-09-07T06:17:06;16.30;1.00
7894;DHT22;51343;51.396;6.656;2023-09-07T06:19:33;16.40;1.00
7894;DHT22;51343;51.396;6.656;2023-09-07T06:21:59;16.50;1.00
7894;DHT22;51343;51.396;6.656;2023-09-07T06:24:26;16.60;1.00
7894;DHT22;51343;51.396;6.656;2023-09-07T06:26:54;16.60;1.00
7894;DHT22;51343;51.396;6.656;2023-09-07T06:29:21;16.70;1.00
7894;DHT22;51343;51.396;6.656;2023-09-07T06:31:47;16.80;1.00
7894;DHT22;51343;51.396;6.656;2023-09-07T06:34:15;16.90;1.00
7894;DHT22;51343;51.396;6.656;2023-09-07T06:36:41;17.00;1.00
7894;DHT22;51343;51.396;6.656;2023-09-07T06:39:08;17.10;1.00
7894;DHT22;51343;51.396;6.656;2023-09-07T06:41:35;17.20;1.00
7894;DHT22;51343;51.396;6.656;2023-09-07T06:44:03;17.30;1.00
7894;DHT22;51343;51.396;6.656;2023-09-07T06:46:30;17.40;1.00
7894;DHT22;51343;51.396;6.656;2023-09-07T06:48:56;17.50;1.00
7894;DHT22;51343;51.396;6.656;2023-09-07T06:51:23;17.70;99.90
7894;DHT22;51343;51.396;6.656;2023-09-07T06:53:50;17.80;1.00
7894;DHT22;51343;51.396;6.656;2023-09-07T06:56:16;17.90;99.90
7894;DHT22;51343;51.396;6.656;2023-09-07T06:58:43;18.00;99.90
7894;DHT22;51343;51.396;6.656;2023-09-07T07:01:11;18.10;1.00
7894;DHT22;51343;51.396;6.656;2023-09-07T07:03:37;18.30;1.00
7894;DHT22;51343;51.396;6.656;2023-09-07T07:06:04;18.40;1.00
7894;DHT22;51343;51.396;6.656;2023-09-07T07:08:31;18.50;1.00
7894;DHT22;51343;51.396;6.656;2023-09-07T07:10:57;18.60;1.00
7894;DHT22;51343;51.396;6.656;2023-09-07T07:13:24;18.70;1.00
7894;DHT22;51343;51.396;6.656;2023-09-07T07:15:51;18.80;1.00
7894;DHT22;51343;51.396;6.656;2023-09-07T07:18:19;18.80;99.90
7894;DHT22;51343;51.396;6.656;2023-09-07T07:20:45;19.00;99.90
7894;DHT22;51343;51.396;6.656;2023-09-07T07:23:12;19.00;99.90
7894;DHT22;51343;51.396;6.656;2023-09-07T07:25:39;19.10;1.00
7894;DHT22;51343;51.396;6.656;2023-09-07T07:28:06;19.20;1.00
7894;DHT22;51343;51.396;6.656;2023-09-07T07:30:32;19.30;1.00
7894;DHT22;51343;51.396;6.656;2023-09-07T07:32:59;19.50;99.90
7894;DHT22;51343;51.396;6.656;2023-09-07T07:35:27;19.60;99.90
7894;DHT22;51343;51.396;6.656;2023-09-07T07:37:54;19.70;99.90
7894;DHT22;51343;51.396;6.656;2023-09-07T07:40:20;19.80;99.90
7894;DHT22;51343;51.396;6.656;2023-09-07T07:42:47;20.00;99.90
7894;DHT22;51343;51.396;6.656;2023-09-07T07:45:15;20.00;99.90
7894;DHT22;51343;51.396;6.656;2023-09-07T07:47:45;20.00;99.90
7894;DHT22;51343;51.396;6.656;2023-09-07T07:50:12;20.10;99.90
7894;DHT22;51343;51.396;6.656;2023-09-07T07:52:40;20.20;99.90
7894;DHT22;51343;51.396;6.656;2023-09-07T07:55:07;20.30;99.90
7894;DHT22;51343;51.396;6.656;2023-09-07T07:57:33;20.40;99.90
7894;DHT22;51343;51.396;6.656;2023-09-07T08:00:00;20.40;99.90
7894;DHT22;51343;51.396;6.656;2023-09-07T08:02:29;20.50;99.90
7894;DHT22;51343;51.396;6.656;2023-09-07T08:04:56;20.70;99.90
7894;DHT22;51343;51.396;6.656;2023-09-07T08:07:23;20.70;99.90
7894;DHT22;51343;51.396;6.656;2023-09-07T08:09:51;20.80;97.90
7894;DHT22;51343;51.396;6.656;2023-09-07T08:12:18;21.00;87.50
7894;DHT22;51343;51.396;6.656;2023-09-07T08:14:45;21.20;29.60
7894;DHT22;51343;51.396;6.656;2023-09-07T08:17:12;21.40;4.00
7894;DHT22;51343;51.396;6.656;2023-09-07T08:19:38;21.40;17.70
7894;DHT22;51343;51.396;6.656;2023-09-07T08:22:05;21.40;6.00
7894;DHT22;51343;51.396;6.656;2023-09-07T08:24:32;21.60;15.70
7894;DHT22;51343;51.396;6.656;2023-09-07T08:27:00;21.70;1.00
7894;DHT22;51343;51.396;6.656;2023-09-07T08:29:26;21.80;1.00
7894;DHT22;51343;51.396;6.656;2023-09-07T08:31:53;21.90;1.00
7894;DHT22;51343;51.396;6.656;2023-09-07T08:34:20;22.00;1.00
7894;DHT22;51343;51.396;6.656;2023-09-07T08:36:47;22.10;1.00
7894;DHT22;51343;51.396;6.656;2023-09-07T08:39:15;22.20;1.00
7894;DHT22;51343;51.396;6.656;2023-09-07T08:41:42;22.40;1.00
7894;DHT22;51343;51.396;6.656;2023-09-07T08:44:13;22.40;1.00
7894;DHT22;51343;51.396;6.656;2023-09-07T08:46:41;22.50;1.00
7894;DHT22;51343;51.396;6.656;2023-09-07T08:49:09;22.60;1.00
7894;DHT22;51343;51.396;6.656;2023-09-07T08:51:36;22.90;1.00
7894;DHT22;51343;51.396;6.656;2023-09-07T08:54:03;23.20;1.00
7894;DHT22;51343;51.396;6.656;2023-09-07T08:56:30;23.50;1.00
7894;DHT22;51343;51.396;6.656;2023-09-07T08:58:57;23.60;1.00
7894;DHT22;51343;51.396;6.656;2023-09-07T09:01:25;23.70;1.00
7894;DHT22;51343;51.396;6.656;2023-09-07T09:03:54;24.00;1.00
7894;DHT22;51343;51.396;6.656;2023-09-07T09:06:21;24.20;1.00
7894;DHT22;51343;51.396;6.656;2023-09-07T09:08:48;24.20;1.00
7894;DHT22;51343;51.396;6.656;2023-09-07T09:11:15;24.40;1.00
7894;DHT22;51343;51.396;6.656;2023-09-07T09:13:42;24.50;1.00
7894;DHT22;51343;51.396;6.656;2023-09-07T09:16:09;24.60;1.00
7894;DHT22;51343;51.396;6.656;2023-09-07T09:18:37;24.70;1.00
7894;DHT22;51343;51.396;6.656;2023-09-07T09:21:04;24.80;1.00
7894;DHT22;51343;51.396;6.656;2023-09-07T09:23:32;24.70;1.00
7894;DHT22;51343;51.396;6.656;2023-09-07T09:25:59;24.80;1.00
7894;DHT22;51343;51.396;6.656;2023-09-07T09:28:26;24.90;1.00
7894;DHT22;51343;51.396;6.656;2023-09-07T09:30:53;25.00;1.00
7894;DHT22;51343;51.396;6.656;2023-09-07T09:33:19;25.10;1.00
7894;DHT22;51343;51.396;6.656;2023-09-07T09:35:48;25.20;1.00
7894;DHT22;51343;51.396;6.656;2023-09-07T09:38:15;25.40;1.00
7894;DHT22;51343;51.396;6.656;2023-09-07T09:40:43;25.60;1.00
7894;DHT22;51343;51.396;6.656;2023-09-07T09:43:10;25.60;1.00
7894;DHT22;51343;51.396;6.656;2023-09-07T09:45:37;25.80;1.00
7894;DHT22;51343;51.396;6.656;2023-09-07T09:48:04;25.90;1.00
7894;DHT22;51343;51.396;6.656;2023-09-07T09:50:31;26.10;1.00
7894;DHT22;51343;51.396;6.656;2023-09-07T09:53:04;26.20;1.00
7894;DHT22;51343;51.396;6.656;2023-09-07T09:55:32;26.40;1.00
7894;DHT22;51343;51.396;6.656;2023-09-07T09:57:59;26.50;1.00
7894;DHT22;51343;51.396;6.656;2023-09-07T10:00:25;26.60;1.00
7894;DHT22;51343;51.396;6.656;2023-09-07T10:02:55;26.80;1.00
7894;DHT22;51343;51.396;6.656;2023-09-07T10:05:24;27.00;1.00
7894;DHT22;51343;51.396;6.656;2023-09-07T10:07:51;27.10;1.00
7894;DHT22;51343;51.396;6.656;2023-09-07T10:10:19;27.20;1.00
7894;DHT22;51343;51.396;6.656;2023-09-07T10:12:50;27.30;1.00
7894;DHT22;51343;51.396;6.656;2023-09-07T10:15:22;27.40;1.00
7894;DHT22;51343;51.396;6.656;2023-09-07T10:17:48;27.60;1.00
7894;DHT22;51343;51.396;6.656;2023-09-07T10:20:18;27.80;1.00
7894;DHT22;51343;51.396;6.656;2023-09-07T10:22:45;27.90;1.00
7894;DHT22;51343;51.396;6.656;2023-09-07T10:25:20;28.10;1.00
7894;DHT22;51343;51.396;6.656;2023-09-07T10:27:47;28.30;1.00
7894;DHT22;51343;51.396;6.656;2023-09-07T10:30:13;28.40;1.00
7894;DHT22;51343;51.396;6.656;2023-09-07T10:32:44;28.50;1.00
7894;DHT22;51343;51.396;6.656;2023-09-07T10:35:14;28.70;1.00
7894;DHT22;51343;51.396;6.656;2023-09-07T10:37:43;28.80;1.00
7894;DHT22;51343;51.396;6.656;2023-09-07T10:40:11;29.00;1.00
7894;DHT22;51343;51.396;6.656;2023-09-07T10:42:40;29.20;1.00
7894;DHT22;51343;51.396;6.656;2023-09-07T10:45:10;29.20;1.00
7894;DHT22;51343;51.396;6.656;2023-09-07T10:47:41;29.30;1.00
7894;DHT22;51343;51.396;6.656;2023-09-07T10:50:09;29.40;1.00
7894;DHT22;51343;51.396;6.656;2023-09-07T10:52:36;29.60;1.00
7894;DHT22;51343;51.396;6.656;2023-09-07T10:55:03;29.80;1.00
7894;DHT22;51343;51.396;6.656;2023-09-07T10:57:30;30.00;1.00
7894;DHT22;51343;51.396;6.656;2023-09-07T10:59:58;30.30;1.00
7894;DHT22;51343;51.396;6.656;2023-09-07T11:02:25;30.90;1.00
7894;DHT22;51343;51.396;6.656;2023-09-07T11:04:51;31.10;1.00
7894;DHT22;51343;51.396;6.656;2023-09-07T11:07:19;31.10;1.00
7894;DHT22;51343;51.396;6.656;2023-09-07T11:09:45;31.30;1.00
7894;DHT22;51343;51.396;6.656;2023-09-07T11:12:12;31.30;1.00
7894;DHT22;51343;51.396;6.656;2023-09-07T11:14:39;31.60;1.00
7894;DHT22;51343;51.396;6.656;2023-09-07T11:17:07;31.80;1.00
7894;DHT22;51343;51.396;6.656;2023-09-07T11:19:34;32.00;1.00
7894;DHT22;51343;51.396;6.656;2023-09-07T11:22:01;32.00;1.00
7894;DHT22;51343;51.396;6.656;2023-09-07T11:24:29;32.40;1.00
7894;DHT22;51343;51.396;6.656;2023-09-07T11:26:57;32.50;1.00
7894;DHT22;51343;51.396;6.656;2023-09-07T11:29:24;33.00;1.00
7894;DHT22;51343;51.396;6.656;2023-09-07T11:31:51;33.10;1.00
7894;DHT22;51343;51.396;6.656;2023-09-07T11:34:19;32.80;1.00
7894;DHT22;51343;51.396;6.656;2023-09-07T11:36:46;32.80;1.00
7894;DHT22;51343;51.396;6.656;2023-09-07T11:39:14;32.90;1.00
7894;DHT22;51343;51.396;6.656;2023-09-07T11:41:41;32.40;1.00
7894;DHT22;51343;51.396;6.656;2023-09-07T11:44:08;32.30;1.00
7894;DHT22;51343;51.396;6.656;2023-09-07T11:46:35;32.30;1.00
7894;DHT22;51343;51.396;6.656;2023-09-07T11:49:01;32.40;1.00
7894;DHT22;51343;51.396;6.656;2023-09-07T11:51:31;32.20;1.00
7894;DHT22;51343;51.396;6.656;2023-09-07T11:53:58;32.20;1.00
7894;DHT22;51343;51.396;6.656;2023-09-07T11:56:25;32.20;1.00
7894;DHT22;51343;51.396;6.656;2023-09-07T11:58:52;32.10;1.00
7894;DHT22;51343;51.396;6.656;2023-09-07T12:01:18;32.20;1.00
7894;DHT22;51343;51.396;6.656;2023-09-07T12:03:45;32.40;1.00
7894;DHT22;51343;51.396;6.656;2023-09-07T12:06:12;32.40;1.00
7894;DHT22;51343;51.396;6.656;2023-09-07T12:08:42;32.50;1.00
7894;DHT22;51343;51.396;6.656;2023-09-07T12:11:23;32.30;1.00
7894;DHT22;51343;51.396;6.656;2023-09-07T12:13:50;32.40;1.00
7894;DHT22;51343;51.396;6.656;2023-09-07T12:16:18;32.40;1.00
7894;DHT22;51343;51.396;6.656;2023-09-07T12:18:45;32.70;1.00
7894;DHT22;51343;51.396;6.656;2023-09-07T12:21:12;32.90;1.00
7894;DHT22;51343;51.396;6.656;2023-09-07T12:23:39;33.20;1.00
7894;DHT22;51343;51.396;6.656;2023-09-07T12:26:07;33.30;1.00
7894;DHT22;51343;51.396;6.656;2023-09-07T12:28:34;33.50;1.00
7894;DHT22;51343;51.396;6.656;2023-09-07T12:31:01;33.70;1.00
7894;DHT22;51343;51.396;6.656;2023-09-07T12:33:28;33.80;1.00
7894;DHT22;51343;51.396;6.656;2023-09-07T12:35:55;34.00;1.00
7894;DHT22;51343;51.396;6.656;2023-09-07T12:38:22;34.00;1.00
7894;DHT22;51343;51.396;6.656;2023-09-07T12:40:53;34.10;1.00
7894;DHT22;51343;51.396;6.656;2023-09-07T12:43:21;33.90;1.00
7894;DHT22;51343;51.396;6.656;2023-09-07T12:45:47;33.70;1.00
7894;DHT22;51343;51.396;6.656;2023-09-07T12:48:14;34.00;1.00
7894;DHT22;51343;51.396;6.656;2023-09-07T12:50:41;34.10;1.00
7894;DHT22;51343;51.396;6.656;2023-09-07T12:53:08;34.30;1.00
7894;DHT22;51343;51.396;6.656;2023-09-07T12:55:35;34.10;1.00
7894;DHT22;51343;51.396;6.656;2023-09-07T12:58:01;34.00;1.00
7894;DHT22;51343;51.396;6.656;2023-09-07T13:00:29;34.00;1.00
7894;DHT22;51343;51.396;6.656;2023-09-07T13:02:56;34.00;1.00
7894;DHT22;51343;51.396;6.656;2023-09-07T13:05:23;34.00;1.00
7894;DHT22;51343;51.396;6.656;2023-09-07T13:07:49;34.10;1.00
7894;DHT22;51343;51.396;6.656;2023-09-07T13:10:17;34.20;1.00
7894;DHT22;51343;51.396;6.656;2023-09-07T13:12:44;34.10;1.00
7894;DHT22;51343;51.396;6.656;2023-09-07T13:15:10;34.00;1.00
7894;DHT22;51343;51.396;6.656;2023-09-07T13:17:38;33.70;1.00
7894;DHT22;51343;51.396;6.656;2023-09-07T13:20:05;33.60;1.00
7894;DHT22;51343;51.396;6.656;2023-09-07T13:22:32;33.60;1.00
7894;DHT22;51343;51.396;6.656;2023-09-07T13:24:59;33.60;1.00
7894;DHT22;51343;51.396;6.656;2023-09-07T13:27:26;33.70;1.00
7894;DHT22;51343;51.396;6.656;2023-09-07T13:29:52;33.90;1.00
7894;DHT22;51343;51.396;6.656;2023-09-07T13:32:19;33.90;1.00
7894;DHT22;51343;51.396;6.656;2023-09-07T13:34:47;33.90;1.00
7894;DHT22;51343;51.396;6.656;2023-09-07T13:37:14;33.90;1.00
7894;DHT22;51343;51.396;6.656;2023-09-07T13:39:40;34.10;1.00
7894;DHT22;51343;51.396;6.656;2023-09-07T13:42:07;34.40;1.00
7894;DHT22;51343;51.396;6.656;2023-09-07T13:44:33;34.40;1.00
7894;DHT22;51343;51.396;6.656;2023-09-07T13:47:00;34.50;1.00
7894;DHT22;51343;51.396;6.656;2023-09-07T13:49:27;34.60;1.00
7894;DHT22;51343;51.396;6.656;2023-09-07T13:51:55;34.70;1.00
7894;DHT22;51343;51.396;6.656;2023-09-07T13:54:21;34.50;1.00
7894;DHT22;51343;51.396;6.656;2023-09-07T13:56:48;34.50;1.00
7894;DHT22;51343;51.396;6.656;2023-09-07T13:59:14;34.60;1.00
7894;DHT22;51343;51.396;6.656;2023-09-07T14:01:41;34.70;1.00
7894;DHT22;51343;51.396;6.656;2023-09-07T14:04:08;34.80;1.00
7894;DHT22;51343;51.396;6.656;2023-09-07T14:06:36;34.60;1.00
7894;DHT22;51343;51.396;6.656;2023-09-07T14:09:04;34.70;1.00
7894;DHT22;51343;51.396;6.656;2023-09-07T14:11:32;34.30;1.00
7894;DHT22;51343;51.396;6.656;2023-09-07T14:13:58;34.30;1.00
7894;DHT22;51343;51.396;6.656;2023-09-07T14:16:25;34.30;1.00
7894;DHT22;51343;51.396;6.656;2023-09-07T14:18:51;34.40;1.00
7894;DHT22;51343;51.396;6.656;2023-09-07T14:21:18;34.40;1.00
7894;DHT22;51343;51.396;6.656;2023-09-07T14:23:45;34.50;1.00
7894;DHT22;51343;51.396;6.656;2023-09-07T14:26:13;34.60;1.00
7894;DHT22;51343;51.396;6.656;2023-09-07T14:28:39;34.80;1.00
7894;DHT22;51343;51.396;6.656;2023-09-07T14:31:06;35.00;1.00
7894;DHT22;51343;51.396;6.656;2023-09-07T14:33:33;34.70;1.00
7894;DHT22;51343;51.396;6.656;2023-09-07T14:36:02;34.90;1.00
7894;DHT22;51343;51.396;6.656;2023-09-07T14:38:28;35.00;1.00
7894;DHT22;51343;51.396;6.656;2023-09-07T14:40:56;34.80;1.00
7894;DHT22;51343;51.396;6.656;2023-09-07T14:43:24;34.80;1.00
7894;DHT22;51343;51.396;6.656;2023-09-07T14:45:50;34.70;1.00
7894;DHT22;51343;51.396;6.656;2023-09-07T14:48:17;34.90;1.00
7894;DHT22;51343;51.396;6.656;2023-09-07T14:50:44;34.70;1.00
7894;DHT22;51343;51.396;6.656;2023-09-07T14:53:10;34.60;1.00
7894;DHT22;51343;51.396;6.656;2023-09-07T14:55:37;34.40;1.00
7894;DHT22;51343;51.396;6.656;2023-09-07T14:58:03;34.40;1.00
7894;DHT22;51343;51.396;6.656;2023-09-07T15:00:33;34.20;1.00
7894;DHT22;51343;51.396;6.656;2023-09-07T15:03:00;34.10;1.00
7894;DHT22;51343;51.396;6.656;2023-09-07T15:05:27;34.00;1.00
7894;DHT22;51343;51.396;6.656;2023-09-07T15:07:54;33.70;1.00
7894;DHT22;51343;51.396;6.656;2023-09-07T15:10:20;33.40;1.00
7894;DHT22;51343;51.396;6.656;2023-09-07T15:12:48;33.30;1.00
7894;DHT22;51343;51.396;6.656;2023-09-07T15:15:15;33.30;1.00
7894;DHT22;51343;51.396;6.656;2023-09-07T15:17:45;33.30;1.00
7894;DHT22;51343;51.396;6.656;2023-09-07T15:20:12;33.20;1.00
7894;DHT22;51343;51.396;6.656;2023-09-07T15:22:39;33.00;1.00
7894;DHT22;51343;51.396;6.656;2023-09-07T15:25:05;32.80;1.00
7894;DHT22;51343;51.396;6.656;2023-09-07T15:27:32;32.60;1.00
7894;DHT22;51343;51.396;6.656;2023-09-07T15:29:59;32.50;1.00
7894;DHT22;51343;51.396;6.656;2023-09-07T15:32:25;32.10;1.00
7894;DHT22;51343;51.396;6.656;2023-09-07T15:34:53;32.00;1.00
7894;DHT22;51343;51.396;6.656;2023-09-07T15:37:20;31.90;1.00
7894;DHT22;51343;51.396;6.656;2023-09-07T15:39:46;31.70;1.00
7894;DHT22;51343;51.396;6.656;2023-09-07T15:42:13;31.50;1.00
7894;DHT22;51343;51.396;6.656;2023-09-07T15:44:40;31.50;1.00
7894;DHT22;51343;51.396;6.656;2023-09-07T15:47:09;31.40;1.00
7894;DHT22;51343;51.396;6.656;2023-09-07T15:49:38;31.20;1.00
7894;DHT22;51343;51.396;6.656;2023-09-07T15:52:07;31.10;1.00
7894;DHT22;51343;51.396;6.656;2023-09-07T15:54:34;31.00;1.00
7894;DHT22;51343;51.396;6.656;2023-09-07T15:57:00;30.90;1.00
7894;DHT22;51343;51.396;6.656;2023-09-07T15:59:28;30.70;1.00
7894;DHT22;51343;51.396;6.656;2023-09-07T16:01:55;30.50;1.00
7894;DHT22;51343;51.396;6.656;2023-09-07T16:04:22;30.40;1.00
7894;DHT22;51343;51.396;6.656;2023-09-07T16:06:48;30.20;1.00
7894;DHT22;51343;51.396;6.656;2023-09-07T16:09:16;30.00;1.00
7894;DHT22;51343;51.396;6.656;2023-09-07T16:11:43;29.80;1.00
7894;DHT22;51343;51.396;6.656;2023-09-07T16:14:10;29.80;1.00
7894;DHT22;51343;51.396;6.656;2023-09-07T16:16:37;29.70;1.00
7894;DHT22;51343;51.396;6.656;2023-09-07T16:19:04;29.60;1.00
7894;DHT22;51343;51.396;6.656;2023-09-07T16:21:30;29.50;1.00
7894;DHT22;51343;51.396;6.656;2023-09-07T16:23:57;29.50;1.00
7894;DHT22;51343;51.396;6.656;2023-09-07T16:26:25;29.50;1.00
7894;DHT22;51343;51.396;6.656;2023-09-07T16:28:52;29.40;1.00
7894;DHT22;51343;51.396;6.656;2023-09-07T16:31:19;29.40;1.00
7894;DHT22;51343;51.396;6.656;2023-09-07T16:33:46;29.30;1.00
7894;DHT22;51343;51.396;6.656;2023-09-07T16:36:12;29.20;1.00
7894;DHT22;51343;51.396;6.656;2023-09-07T16:38:39;29.10;1.00